sensor_id;sensor_type;location;lat;lon;timestamp;P1;durP1;ratioP1;P2;durP2;ratioP2
9667;SDS011;4872;48.316;10.650;2023-02-12T05:06:35;33.03;;;22.73;;
9667;SDS011;4872;48.316;10.650;2023-02-12T05:09:03;37.13;;;24.17;;
9667;SDS011;4872;48.316;10.650;2023-02-12T05:11:30;32.77;;;23.90;;
9667;SDS011;4872;48.316;10.650;2023-02-12T05:13:57;35.23;;;24.33;;
9667;SDS011;4872;48.316;10.650;2023-02-12T05:16:24;34.20;;;24.13;;
9667;SDS011;4872;48.316;10.650;2023-02-12T05:18:50;34.50;;;24.50;;
9667;SDS011;4872;48.316;10.650;2023-02-12T05:21:17;34.80;;;23.93;;
9667;SDS011;4872;48.316;10.650;2023-02-12T05:23:45;34.60;;;25.13;;
9667;SDS011;4872;48.316;10.650;2023-02-12T05:26:13;32.50;;;23.53;;
9667;SDS011;4872;48.316;10.650;2023-02-12T05:28:41;34.67;;;24.67;;
9667;SDS011;4872;48.316;10.650;2023-02-12T05:31:09;36.17;;;25.40;;
9667;SDS011;4872;48.316;10.650;2023-02-12T05:33:38;35.80;;;25.47;;
9667;SDS011;4872;48.316;10.650;2023-02-12T05:36:08;32.13;;;22.80;;
9667;SDS011;4872;48.316;10.650;2023-02-12T05:38:36;36.67;;;24.53;;
9667;SDS011;4872;48.316;10.650;2023-02-12T05:41:05;29.60;;;21.83;;
9667;SDS011;4872;48.316;10.650;2023-02-12T05:43:33;34.17;;;22.93;;
9667;SDS011;4872;48.316;10.650;2023-02-12T05:46:01;31.47;;;23.57;;
9667;SDS011;4872;48.316;10.650;2023-02-12T05:48:29;32.30;;;22.00;;
9667;SDS011;4872;48.316;10.650;2023-02-12T05:51:00;32.40;;;22.43;;
9667;SDS011;4872;48.316;10.650;2023-02-12T05:53:27;34.33;;;23.23;;
9667;SDS011;4872;48.316;10.650;2023-02-12T05:55:54;37.93;;;24.83;;
9667;SDS011;4872;48.316;10.650;2023-02-12T05:58:31;35.93;;;24.40;;
9667;SDS011;4872;48.316;10.650;2023-02-12T06:00:58;41.83;;;25.60;;
9667;SDS011;4872;48.316;10.650;2023-02-12T06:03:25;35.07;;;24.80;;
9667;SDS011;4872;48.316;10.650;2023-02-12T06:05:52;37.03;;;26.17;;
9667;SDS011;4872;48.316;10.650;2023-02-12T06:08:19;36.63;;;25.07;;
9667;SDS011;4872;48.316;10.650;2023-02-12T06:10:45;37.63;;;26.77;;
9667;SDS011;4872;48.316;10.650;2023-02-12T06:13:12;38.40;;;25.83;;
9667;SDS011;4872;48.316;10.650;2023-02-12T06:15:40;40.47;;;26.87;;
9667;SDS011;4872;48.316;10.650;2023-02-12T06:18:07;43.23;;;26.33;;
9667;SDS011;4872;48.316;10.650;2023-02-12T06:20:34;42.73;;;27.50;;
9667;SDS011;4872;48.316;10.650;2023-02-12T06:23:03;36.70;;;25.40;;
9667;SDS011;4872;48.316;10.650;2023-02-12T06:25:30;41.33;;;25.57;;
9667;SDS011;4872;48.316;10.650;2023-02-12T06:27:56;40.40;;;24.03;;
9667;SDS011;4872;48.316;10.650;2023-02-12T06:30:23;38.20;;;25.90;;
9667;SDS011;4872;48.316;10.650;2023-02-12T06:32:51;40.70;;;26.77;;
9667;SDS011;4872;48.316;10.650;2023-02-12T06:35:18;41.93;;;28.00;;
9667;SDS011;4872;48.316;10.650;2023-02-12T06:37:44;39.63;;;27.13;;
9667;SDS011;4872;48.316;10.650;2023-02-12T06:40:11;39.67;;;25.07;;
9667;SDS011;4872;48.316;10.650;2023-02-12T06:42:38;39.13;;;25.10;;
9667;SDS011;4872;48.316;10.650;2023-02-12T06:45:05;34.50;;;25.70;;
9667;SDS011;4872;48.316;10.650;2023-02-12T06:47:32;33.30;;;23.40;;
9667;SDS011;4872;48.316;10.650;2023-02-12T06:50:00;35.33;;;24.20;;
9667;SDS011;4872;48.316;10.650;2023-02-12T06:52:27;37.60;;;24.67;;
9667;SDS011;4872;48.316;10.650;2023-02-12T06:54:54;35.87;;;22.73;;
9667;SDS011;4872;48.316;10.650;2023-02-12T06:57:21;37.20;;;24.10;;
9667;SDS011;4872;48.316;10.650;2023-02-12T06:59:48;35.07;;;24.83;;
9667;SDS011;4872;48.316;10.650;2023-02-12T07:02:14;38.37;;;25.53;;
9667;SDS011;4872;48.316;10.650;2023-02-12T07:04:41;38.07;;;25.07;;
9667;SDS011;4872;48.316;10.650;2023-02-12T07:07:09;42.70;;;27.27;;
9667;SDS011;4872;48.316;10.650;2023-02-12T07:09:36;40.00;;;27.27;;
9667;SDS011;4872;48.316;10.650;2023-02-12T07:12:03;40.33;;;27.40;;
9667;SDS011;4872;48.316;10.650;2023-02-12T07:14:30;44.27;;;30.07;;
9667;SDS011;4872;48.316;10.650;2023-02-12T07:16:56;49.03;;;32.57;;
9667;SDS011;4872;48.316;10.650;2023-02-12T07:19:27;52.60;;;33.20;;
9667;SDS011;4872;48.316;10.650;2023-02-12T07:21:54;58.87;;;34.47;;
9667;SDS011;4872;48.316;10.650;2023-02-12T07:24:22;57.13;;;36.27;;
9667;SDS011;4872;48.316;10.650;2023-02-12T07:26:49;64.73;;;36.93;;
9667;SDS011;4872;48.316;10.650;2023-02-12T07:29:16;58.63;;;34.67;;
9667;SDS011;4872;48.316;10.650;2023-02-12T07:31:42;59.93;;;33.80;;
9667;SDS011;4872;48.316;10.650;2023-02-12T07:34:09;56.23;;;34.47;;
9667;SDS011;4872;48.316;10.650;2023-02-12T07:36:36;63.57;;;37.70;;
9667;SDS011;4872;48.316;10.650;2023-02-12T07:39:03;72.63;;;40.87;;
9667;SDS011;4872;48.316;10.650;2023-02-12T07:41:32;70.37;;;40.37;;
9667;SDS011;4872;48.316;10.650;2023-02-12T07:44:01;75.67;;;41.50;;
9667;SDS011;4872;48.316;10.650;2023-02-12T07:46:32;80.40;;;41.50;;
9667;SDS011;4872;48.316;10.650;2023-02-12T07:49:02;74.90;;;39.77;;
9667;SDS011;4872;48.316;10.650;2023-02-12T07:51:31;78.43;;;43.37;;
9667;SDS011;4872;48.316;10.650;2023-02-12T07:53:58;67.07;;;40.53;;
9667;SDS011;4872;48.316;10.650;2023-02-12T07:56:26;70.23;;;37.97;;
9667;SDS011;4872;48.316;10.650;2023-02-12T07:58:57;61.07;;;35.20;;
9667;SDS011;4872;48.316;10.650;2023-02-12T08:01:27;60.33;;;33.70;;
9667;SDS011;4872;48.316;10.650;2023-02-12T08:03:56;52.53;;;33.10;;
9667;SDS011;4872;48.316;10.650;2023-02-12T08:06:26;58.70;;;37.37;;
9667;SDS011;4872;48.316;10.650;2023-02-12T08:08:55;63.83;;;40.10;;
9667;SDS011;4872;48.316;10.650;2023-02-12T08:11:23;61.80;;;36.27;;
9667;SDS011;4872;48.316;10.650;2023-02-12T08:13:50;55.60;;;33.93;;
9667;SDS011;4872;48.316;10.650;2023-02-12T08:16:20;64.93;;;36.93;;
9667;SDS011;4872;48.316;10.650;2023-02-12T08:18:48;56.07;;;34.07;;
9667;SDS011;4872;48.316;10.650;2023-02-12T08:21:19;59.23;;;34.30;;
9667;SDS011;4872;48.316;10.650;2023-02-12T08:23:47;57.17;;;35.60;;
9667;SDS011;4872;48.316;10.650;2023-02-12T08:26:15;54.87;;;34.67;;
9667;SDS011;4872;48.316;10.650;2023-02-12T08:28:44;60.70;;;37.23;;
9667;SDS011;4872;48.316;10.650;2023-02-12T08:31:12;57.77;;;36.93;;
9667;SDS011;4872;48.316;10.650;2023-02-12T08:33:42;53.87;;;33.33;;
9667;SDS011;4872;48.316;10.650;2023-02-12T08:36:11;54.10;;;34.33;;
9667;SDS011;4872;48.316;10.650;2023-02-12T08:38:40;49.00;;;32.23;;
9667;SDS011;4872;48.316;10.650;2023-02-12T08:41:08;52.70;;;33.37;;
9667;SDS011;4872;48.316;10.650;2023-02-12T08:43:36;53.50;;;32.87;;
9667;SDS011;4872;48.316;10.650;2023-02-12T08:46:06;53.83;;;33.30;;
9667;SDS011;4872;48.316;10.650;2023-02-12T08:48:35;52.90;;;32.90;;
9667;SDS011;4872;48.316;10.650;2023-02-12T08:51:04;56.77;;;32.77;;
9667;SDS011;4872;48.316;10.650;2023-02-12T08:53:32;52.97;;;32.97;;
9667;SDS011;4872;48.316;10.650;2023-02-12T08:55:59;47.97;;;30.70;;
9667;SDS011;4872;48.316;10.650;2023-02-12T08:58:26;49.07;;;33.17;;
9667;SDS011;4872;48.316;10.650;2023-02-12T09:00:53;52.47;;;31.80;;
9667;SDS011;4872;48.316;10.650;2023-02-12T09:03:19;49.43;;;30.23;;
9667;SDS011;4872;48.316;10.650;2023-02-12T09:05:46;50.47;;;30.77;;
9667;SDS011;4872;48.316;10.650;2023-02-12T09:08:14;55.50;;;31.70;;
9667;SDS011;4872;48.316;10.650;2023-02-12T09:10:41;58.87;;;33.90;;
9667;SDS011;4872;48.316;10.650;2023-02-12T09:13:09;54.33;;;32.30;;
9667;SDS011;4872;48.316;10.650;2023-02-12T09:15:37;46.67;;;32.17;;
9667;SDS011;4872;48.316;10.650;2023-02-12T09:18:05;48.57;;;31.70;;
9667;SDS011;4872;48.316;10.650;2023-02-12T09:20:32;48.13;;;30.30;;
9667;SDS011;4872;48.316;10.650;2023-02-12T09:23:01;47.30;;;30.07;;
9667;SDS011;4872;48.316;10.650;2023-02-12T09:25:30;49.30;;;29.60;;
9667;SDS011;4872;48.316;10.650;2023-02-12T09:27:58;43.30;;;28.17;;
9667;SDS011;4872;48.316;10.650;2023-02-12T09:30:25;47.23;;;28.57;;
9667;SDS011;4872;48.316;10.650;2023-02-12T09:32:51;45.70;;;28.60;;
9667;SDS011;4872;48.316;10.650;2023-02-12T09:35:18;42.43;;;27.03;;
9667;SDS011;4872;48.316;10.650;2023-02-12T09:37:45;41.00;;;25.40;;
9667;SDS011;4872;48.316;10.650;2023-02-12T09:40:15;43.80;;;26.87;;
9667;SDS011;4872;48.316;10.650;2023-02-12T09:42:51;47.70;;;28.53;;
9667;SDS011;4872;48.316;10.650;2023-02-12T09:45:31;44.57;;;27.20;;
9667;SDS011;4872;48.316;10.650;2023-02-12T09:48:05;43.00;;;26.97;;
9667;SDS011;4872;48.316;10.650;2023-02-12T09:50:44;41.00;;;24.63;;
9667;SDS011;4872;48.316;10.650;2023-02-12T09:53:17;42.40;;;27.40;;
9667;SDS011;4872;48.316;10.650;2023-02-12T09:55:46;43.03;;;25.27;;
9667;SDS011;4872;48.316;10.650;2023-02-12T09:58:15;38.87;;;25.73;;
9667;SDS011;4872;48.316;10.650;2023-02-12T10:00:47;39.03;;;24.53;;
9667;SDS011;4872;48.316;10.650;2023-02-12T10:03:14;36.60;;;23.27;;
9667;SDS011;4872;48.316;10.650;2023-02-12T10:05:44;34.43;;;22.70;;
9667;SDS011;4872;48.316;10.650;2023-02-12T10:08:20;38.37;;;24.10;;
9667;SDS011;4872;48.316;10.650;2023-02-12T10:10:56;33.70;;;22.37;;
9667;SDS011;4872;48.316;10.650;2023-02-12T10:13:42;33.60;;;20.37;;
9667;SDS011;4872;48.316;10.650;2023-02-12T10:16:17;33.47;;;21.27;;
9667;SDS011;4872;48.316;10.650;2023-02-12T10:19:01;29.97;;;18.03;;
9667;SDS011;4872;48.316;10.650;2023-02-12T10:21:39;25.75;;;18.10;;
9667;SDS011;4872;48.316;10.650;2023-02-12T10:24:19;28.07;;;16.90;;
9667;SDS011;4872;48.316;10.650;2023-02-12T10:26:59;20.00;;;12.93;;
9667;SDS011;4872;48.316;10.650;2023-02-12T10:29:32;13.47;;;9.10;;
9667;SDS011;4872;48.316;10.650;2023-02-12T10:32:03;11.00;;;7.43;;
9667;SDS011;4872;48.316;10.650;2023-02-12T10:34:37;10.57;;;5.83;;
9667;SDS011;4872;48.316;10.650;2023-02-12T10:37:08;4.13;;;3.70;;
9667;SDS011;4872;48.316;10.650;2023-02-12T10:39:44;4.70;;;3.30;;
9667;SDS011;4872;48.316;10.650;2023-02-12T10:42:15;7.43;;;5.40;;
9667;SDS011;4872;48.316;10.650;2023-02-12T10:44:48;8.33;;;5.70;;
9667;SDS011;4872;48.316;10.650;2023-02-12T10:47:16;8.00;;;5.03;;
9667;SDS011;4872;48.316;10.650;2023-02-12T10:49:45;4.50;;;3.90;;
9667;SDS011;4872;48.316;10.650;2023-02-12T10:52:16;6.77;;;4.20;;
9667;SDS011;4872;48.316;10.650;2023-02-12T10:54:51;6.80;;;4.00;;
9667;SDS011;4872;48.316;10.650;2023-02-12T10:57:19;4.60;;;3.63;;
9667;SDS011;4872;48.316;10.650;2023-02-12T10:59:49;5.07;;;3.23;;
9667;SDS011;4872;48.316;10.650;2023-02-12T11:02:18;3.80;;;3.20;;
9667;SDS011;4872;48.316;10.650;2023-02-12T11:04:51;4.37;;;3.30;;
9667;SDS011;4872;48.316;10.650;2023-02-12T11:07:19;4.20;;;3.00;;
9667;SDS011;4872;48.316;10.650;2023-02-12T11:09:47;2.93;;;2.60;;
9667;SDS011;4872;48.316;10.650;2023-02-12T11:12:19;4.17;;;3.03;;
9667;SDS011;4872;48.316;10.650;2023-02-12T11:14:53;4.13;;;3.57;;
9667;SDS011;4872;48.316;10.650;2023-02-12T11:17:23;4.20;;;3.50;;
9667;SDS011;4872;48.316;10.650;2023-02-12T11:20:07;4.97;;;3.30;;
9667;SDS011;4872;48.316;10.650;2023-02-12T11:22:52;5.67;;;4.50;;
9667;SDS011;4872;48.316;10.650;2023-02-12T11:25:22;7.10;;;4.80;;
9667;SDS011;4872;48.316;10.650;2023-02-12T11:28:01;9.63;;;6.60;;
9667;SDS011;4872;48.316;10.650;2023-02-12T11:30:32;11.20;;;7.60;;
9667;SDS011;4872;48.316;10.650;2023-02-12T11:33:13;10.23;;;7.33;;
9667;SDS011;4872;48.316;10.650;2023-02-12T11:35:48;11.33;;;8.43;;
9667;SDS011;4872;48.316;10.650;2023-02-12T11:38:19;11.30;;;8.27;;
9667;SDS011;4872;48.316;10.650;2023-02-12T11:40:57;13.30;;;8.67;;
9667;SDS011;4872;48.316;10.650;2023-02-12T11:43:29;12.03;;;8.77;;
9667;SDS011;4872;48.316;10.650;2023-02-12T11:46:02;11.23;;;7.63;;
9667;SDS011;4872;48.316;10.650;2023-02-12T11:48:32;10.73;;;6.47;;
9667;SDS011;4872;48.316;10.650;2023-02-12T11:51:03;8.00;;;5.43;;
9667;SDS011;4872;48.316;10.650;2023-02-12T11:53:34;7.07;;;5.30;;
9667;SDS011;4872;48.316;10.650;2023-02-12T11:56:05;7.93;;;5.83;;
9667;SDS011;4872;48.316;10.650;2023-02-12T11:58:35;8.37;;;6.00;;
9667;SDS011;4872;48.316;10.650;2023-02-12T12:01:05;9.13;;;6.30;;
9667;SDS011;4872;48.316;10.650;2023-02-12T12:03:39;9.90;;;6.80;;
9667;SDS011;4872;48.316;10.650;2023-02-12T12:06:17;10.90;;;6.60;;
9667;SDS011;4872;48.316;10.650;2023-02-12T12:08:50;9.17;;;7.27;;
9667;SDS011;4872;48.316;10.650;2023-02-12T12:11:24;9.73;;;7.67;;
9667;SDS011;4872;48.316;10.650;2023-02-12T12:13:56;10.30;;;7.43;;
9667;SDS011;4872;48.316;10.650;2023-02-12T12:16:30;11.23;;;7.17;;
9667;SDS011;4872;48.316;10.650;2023-02-12T12:19:27;10.70;;;7.70;;
9667;SDS011;4872;48.316;10.650;2023-02-12T12:22:23;10.40;;;7.37;;
9667;SDS011;4872;48.316;10.650;2023-02-12T12:24:56;9.27;;;6.53;;
9667;SDS011;4872;48.316;10.650;2023-02-12T12:27:31;10.43;;;6.77;;
9667;SDS011;4872;48.316;10.650;2023-02-12T12:30:23;9.37;;;6.97;;
9667;SDS011;4872;48.316;10.650;2023-02-12T12:33:00;10.30;;;6.90;;
9667;SDS011;4872;48.316;10.650;2023-02-12T12:35:33;12.27;;;8.33;;
9667;SDS011;4872;48.316;10.650;2023-02-12T12:38:11;11.80;;;7.00;;
9667;SDS011;4872;48.316;10.650;2023-02-12T12:40:51;12.50;;;8.60;;
9667;SDS011;4872;48.316;10.650;2023-02-12T12:43:25;10.90;;;7.67;;
9667;SDS011;4872;48.316;10.650;2023-02-12T12:46:19;12.13;;;7.53;;
9667;SDS011;4872;48.316;10.650;2023-02-12T12:49:08;7.90;;;5.90;;
9667;SDS011;4872;48.316;10.650;2023-02-12T12:55:18;7.07;;;5.47;;
9667;SDS011;4872;48.316;10.650;2023-02-12T12:58:04;6.90;;;5.07;;
9667;SDS011;4872;48.316;10.650;2023-02-12T13:00:40;9.33;;;5.33;;
9667;SDS011;4872;48.316;10.650;2023-02-12T13:09:27;6.03;;;4.87;;
9667;SDS011;4872;48.316;10.650;2023-02-12T13:12:12;8.43;;;4.87;;
9667;SDS011;4872;48.316;10.650;2023-02-12T13:15:13;6.97;;;4.47;;
9667;SDS011;4872;48.316;10.650;2023-02-12T13:17:48;6.10;;;4.60;;
9667;SDS011;4872;48.316;10.650;2023-02-12T13:20:19;6.13;;;4.67;;
9667;SDS011;4872;48.316;10.650;2023-02-12T13:22:56;4.80;;;4.10;;
9667;SDS011;4872;48.316;10.650;2023-02-12T13:25:27;5.87;;;3.93;;
9667;SDS011;4872;48.316;10.650;2023-02-12T13:27:58;8.47;;;5.10;;
9667;SDS011;4872;48.316;10.650;2023-02-12T13:30:28;9.33;;;5.83;;
9667;SDS011;4872;48.316;10.650;2023-02-12T13:33:01;8.90;;;5.80;;
9667;SDS011;4872;48.316;10.650;2023-02-12T13:35:32;7.67;;;5.53;;
9667;SDS011;4872;48.316;10.650;2023-02-12T13:38:04;7.37;;;5.20;;
9667;SDS011;4872;48.316;10.650;2023-02-12T13:40:32;8.03;;;5.40;;
9667;SDS011;4872;48.316;10.650;2023-02-12T13:43:02;9.87;;;7.03;;
9667;SDS011;4872;48.316;10.650;2023-02-12T13:45:35;9.73;;;5.90;;
9667;SDS011;4872;48.316;10.650;2023-02-12T13:48:19;7.33;;;5.53;;
9667;SDS011;4872;48.316;10.650;2023-02-12T13:50:55;9.77;;;7.10;;
9667;SDS011;4872;48.316;10.650;2023-02-12T13:53:31;8.07;;;6.43;;
9667;SDS011;4872;48.316;10.650;2023-02-12T13:56:09;10.60;;;7.50;;
9667;SDS011;4872;48.316;10.650;2023-02-12T13:58:47;9.53;;;7.13;;
9667;SDS011;4872;48.316;10.650;2023-02-12T14:04:15;12.67;;;8.87;;
9667;SDS011;4872;48.316;10.650;2023-02-12T14:06:59;12.13;;;8.33;;
9667;SDS011;4872;48.316;10.650;2023-02-12T14:09:36;12.53;;;8.40;;
9667;SDS011;4872;48.316;10.650;2023-02-12T14:12:05;13.20;;;8.27;;
9667;SDS011;4872;48.316;10.650;2023-02-12T14:14:35;13.17;;;8.23;;
9667;SDS011;4872;48.316;10.650;2023-02-12T14:20:22;11.97;;;8.53;;
9667;SDS011;4872;48.316;10.650;2023-02-12T14:22:59;12.47;;;8.83;;
9667;SDS011;4872;48.316;10.650;2023-02-12T14:25:45;13.27;;;9.00;;
9667;SDS011;4872;48.316;10.650;2023-02-12T14:28:26;14.57;;;9.93;;
9667;SDS011;4872;48.316;10.650;2023-02-12T14:31:19;14.33;;;9.73;;
9667;SDS011;4872;48.316;10.650;2023-02-12T14:37:17;14.77;;;10.03;;
9667;SDS011;4872;48.316;10.650;2023-02-12T14:49:17;21.57;;;12.43;;
9667;SDS011;4872;48.316;10.650;2023-02-12T14:51:50;19.90;;;13.80;;
9667;SDS011;4872;48.316;10.650;2023-02-12T14:54:26;24.00;;;15.10;;
9667;SDS011;4872;48.316;10.650;2023-02-12T14:56:57;20.23;;;13.60;;
9667;SDS011;4872;48.316;10.650;2023-02-12T14:59:29;20.30;;;13.50;;
9667;SDS011;4872;48.316;10.650;2023-02-12T15:01:59;23.33;;;14.27;;
9667;SDS011;4872;48.316;10.650;2023-02-12T15:04:29;21.23;;;13.73;;
9667;SDS011;4872;48.316;10.650;2023-02-12T15:07:02;21.37;;;13.57;;
9667;SDS011;4872;48.316;10.650;2023-02-12T15:09:33;23.17;;;14.37;;
9667;SDS011;4872;48.316;10.650;2023-02-12T15:12:04;19.40;;;13.03;;
9667;SDS011;4872;48.316;10.650;2023-02-12T15:14:38;18.40;;;12.80;;
9667;SDS011;4872;48.316;10.650;2023-02-12T15:17:08;23.13;;;14.10;;
9667;SDS011;4872;48.316;10.650;2023-02-12T15:19:45;20.77;;;13.73;;
9667;SDS011;4872;48.316;10.650;2023-02-12T15:22:17;19.17;;;12.83;;
9667;SDS011;4872;48.316;10.650;2023-02-12T15:24:48;22.87;;;13.53;;
9667;SDS011;4872;48.316;10.650;2023-02-12T15:27:15;20.83;;;14.80;;
9667;SDS011;4872;48.316;10.650;2023-02-12T15:29:45;19.07;;;12.93;;
9667;SDS011;4872;48.316;10.650;2023-02-12T15:32:15;20.27;;;13.33;;
9667;SDS011;4872;48.316;10.650;2023-02-12T15:34:47;18.63;;;12.40;;
9667;SDS011;4872;48.316;10.650;2023-02-12T15:37:17;20.20;;;12.80;;
9667;SDS011;4872;48.316;10.650;2023-02-12T15:39:47;19.10;;;12.67;;
9667;SDS011;4872;48.316;10.650;2023-02-12T15:42:22;21.57;;;13.47;;
9667;SDS011;4872;48.316;10.650;2023-02-12T15:45:02;22.33;;;13.73;;
9667;SDS011;4872;48.316;10.650;2023-02-12T15:47:54;19.47;;;12.47;;
9667;SDS011;4872;48.316;10.650;2023-02-12T15:50:24;18.37;;;11.97;;
9667;SDS011;4872;48.316;10.650;2023-02-12T15:52:51;18.70;;;12.87;;
9667;SDS011;4872;48.316;10.650;2023-02-12T15:55:19;15.87;;;12.30;;
9667;SDS011;4872;48.316;10.650;2023-02-12T15:57:49;18.23;;;13.43;;
9667;SDS011;4872;48.316;10.650;2023-02-12T16:00:24;18.10;;;13.27;;
9667;SDS011;4872;48.316;10.650;2023-02-12T16:02:54;16.93;;;12.90;;
9667;SDS011;4872;48.316;10.650;2023-02-12T16:05:21;18.43;;;13.13;;
9667;SDS011;4872;48.316;10.650;2023-02-12T16:07:49;17.97;;;13.63;;
9667;SDS011;4872;48.316;10.650;2023-02-12T16:10:17;21.43;;;14.33;;
9667;SDS011;4872;48.316;10.650;2023-02-12T16:12:44;18.60;;;13.53;;
9667;SDS011;4872;48.316;10.650;2023-02-12T16:15:26;20.17;;;13.93;;
9667;SDS011;4872;48.316;10.650;2023-02-12T16:17:55;19.87;;;14.37;;
9667;SDS011;4872;48.316;10.650;2023-02-12T16:20:24;20.03;;;13.67;;
9667;SDS011;4872;48.316;10.650;2023-02-12T16:22:53;22.37;;;14.47;;
9667;SDS011;4872;48.316;10.650;2023-02-12T16:25:21;24.67;;;17.40;;
9667;SDS011;4872;48.316;10.650;2023-02-12T16:27:52;21.47;;;14.93;;
9667;SDS011;4872;48.316;10.650;2023-02-12T16:30:29;21.53;;;15.63;;
9667;SDS011;4872;48.316;10.650;2023-02-12T16:32:58;24.50;;;16.53;;
9667;SDS011;4872;48.316;10.650;2023-02-12T16:35:27;23.60;;;16.27;;
9667;SDS011;4872;48.316;10.650;2023-02-12T16:38:02;25.27;;;16.73;;
9667;SDS011;4872;48.316;10.650;2023-02-12T16:41:13;25.13;;;16.60;;
9667;SDS011;4872;48.316;10.650;2023-02-12T16:43:48;25.03;;;17.70;;
9667;SDS011;4872;48.316;10.650;2023-02-12T16:46:18;26.23;;;17.63;;
9667;SDS011;4872;48.316;10.650;2023-02-12T16:48:46;24.30;;;16.57;;
9667;SDS011;4872;48.316;10.650;2023-02-12T16:51:20;27.20;;;18.73;;
9667;SDS011;4872;48.316;10.650;2023-02-12T16:53:48;27.37;;;17.77;;
9667;SDS011;4872;48.316;10.650;2023-02-12T16:56:18;27.53;;;19.60;;
9667;SDS011;4872;48.316;10.650;2023-02-12T16:58:47;30.80;;;20.17;;
9667;SDS011;4872;48.316;10.650;2023-02-12T17:01:17;27.00;;;18.43;;
9667;SDS011;4872;48.316;10.650;2023-02-12T17:03:47;30.10;;;19.47;;
9667;SDS011;4872;48.316;10.650;2023-02-12T17:06:15;29.73;;;19.33;;
9667;SDS011;4872;48.316;10.650;2023-02-12T17:08:43;29.70;;;18.97;;
9667;SDS011;4872;48.316;10.650;2023-02-12T17:11:10;26.20;;;19.07;;
9667;SDS011;4872;48.316;10.650;2023-02-12T17:13:38;30.07;;;20.17;;
9667;SDS011;4872;48.316;10.650;2023-02-12T17:16:04;30.77;;;20.00;;
9667;SDS011;4872;48.316;10.650;2023-02-12T17:18:33;31.43;;;20.10;;
9667;SDS011;4872;48.316;10.650;2023-02-12T17:21:13;32.60;;;20.57;;
9667;SDS011;4872;48.316;10.650;2023-02-12T17:23:46;28.73;;;18.60;;
9667;SDS011;4872;48.316;10.650;2023-02-12T17:26:12;29.10;;;19.10;;
9667;SDS011;4872;48.316;10.650;2023-02-12T17:28:39;33.90;;;20.23;;
9667;SDS011;4872;48.316;10.650;2023-02-12T17:31:06;33.93;;;20.60;;
9667;SDS011;4872;48.316;10.650;2023-02-12T17:33:34;31.47;;;20.77;;
9667;SDS011;4872;48.316;10.650;2023-02-12T17:36:01;41.33;;;25.30;;
9667;SDS011;4872;48.316;10.650;2023-02-12T17:38:28;31.50;;;20.17;;
9667;SDS011;4872;48.316;10.650;2023-02-12T17:40:55;35.70;;;21.97;;
9667;SDS011;4872;48.316;10.650;2023-02-12T17:43:22;32.43;;;21.63;;
9667;SDS011;4872;48.316;10.650;2023-02-12T17:45:49;35.97;;;22.27;;
9667;SDS011;4872;48.316;10.650;2023-02-12T17:48:17;32.57;;;20.43;;
9667;SDS011;4872;48.316;10.650;2023-02-12T17:50:51;36.57;;;21.33;;
9667;SDS011;4872;48.316;10.650;2023-02-12T17:53:19;32.27;;;20.30;;
9667;SDS011;4872;48.316;10.650;2023-02-12T17:55:45;37.57;;;20.77;;
9667;SDS011;4872;48.316;10.650;2023-02-12T17:58:12;36.50;;;22.10;;
9667;SDS011;4872;48.316;10.650;2023-02-12T18:00:39;33.17;;;21.17;;
9667;SDS011;4872;48.316;10.650;2023-02-12T18:03:06;36.90;;;22.00;;
9667;SDS011;4872;48.316;10.650;2023-02-12T18:05:33;36.87;;;22.10;;
9667;SDS011;4872;48.316;10.650;2023-02-12T18:08:07;35.90;;;22.43;;
9667;SDS011;4872;48.316;10.650;2023-02-12T18:10:37;38.33;;;23.00;;
9667;SDS011;4872;48.316;10.650;2023-02-12T18:13:05;36.20;;;21.40;;
9667;SDS011;4872;48.316;10.650;2023-02-12T18:15:31;35.57;;;22.40;;
9667;SDS011;4872;48.316;10.650;2023-02-12T18:17:58;37.83;;;23.37;;
9667;SDS011;4872;48.316;10.650;2023-02-12T18:20:25;37.63;;;24.00;;
9667;SDS011;4872;48.316;10.650;2023-02-12T18:22:52;35.87;;;22.37;;
9667;SDS011;4872;48.316;10.650;2023-02-12T18:25:20;37.60;;;23.17;;
9667;SDS011;4872;48.316;10.650;2023-02-12T18:27:47;40.57;;;25.83;;
9667;SDS011;4872;48.316;10.650;2023-02-12T18:30:14;40.93;;;24.40;;
9667;SDS011;4872;48.316;10.650;2023-02-12T18:32:41;38.50;;;24.13;;
9667;SDS011;4872;48.316;10.650;2023-02-12T18:35:08;41.10;;;24.97;;
9667;SDS011;4872;48.316;10.650;2023-02-12T18:37:35;40.83;;;25.70;;
9667;SDS011;4872;48.316;10.650;2023-02-12T18:40:02;44.67;;;26.30;;
9667;SDS011;4872;48.316;10.650;2023-02-12T18:42:30;37.60;;;23.90;;
9667;SDS011;4872;48.316;10.650;2023-02-12T18:44:57;40.10;;;24.43;;
9667;SDS011;4872;48.316;10.650;2023-02-12T18:47:24;43.20;;;25.13;;
9667;SDS011;4872;48.316;10.650;2023-02-12T18:49:51;40.43;;;24.53;;
9667;SDS011;4872;48.316;10.650;2023-02-12T18:52:17;39.17;;;24.27;;
9667;SDS011;4872;48.316;10.650;2023-02-12T18:54:44;42.80;;;25.17;;
9667;SDS011;4872;48.316;10.650;2023-02-12T18:57:11;39.63;;;25.13;;
9667;SDS011;4872;48.316;10.650;2023-02-12T18:59:39;41.73;;;26.40;;
9667;SDS011;4872;48.316;10.650;2023-02-12T19:02:06;42.87;;;26.17;;
9667;SDS011;4872;48.316;10.650;2023-02-12T19:04:33;36.63;;;24.17;;
9667;SDS011;4872;48.316;10.650;2023-02-12T19:06:59;40.07;;;25.90;;
9667;SDS011;4872;48.316;10.650;2023-02-12T19:09:26;42.83;;;26.10;;
9667;SDS011;4872;48.316;10.650;2023-02-12T19:11:54;39.17;;;25.57;;
9667;SDS011;4872;48.316;10.650;2023-02-12T19:14:22;40.13;;;24.27;;
9667;SDS011;4872;48.316;10.650;2023-02-12T19:16:51;40.80;;;26.30;;
9667;SDS011;4872;48.316;10.650;2023-02-12T19:19:18;38.27;;;23.93;;
9667;SDS011;4872;48.316;10.650;2023-02-12T19:21:46;35.33;;;24.00;;
9667;SDS011;4872;48.316;10.650;2023-02-12T19:24:13;39.50;;;24.73;;
9667;SDS011;4872;48.316;10.650;2023-02-12T19:26:40;37.90;;;23.17;;
9667;SDS011;4872;48.316;10.650;2023-02-12T19:29:08;37.57;;;24.07;;
9667;SDS011;4872;48.316;10.650;2023-02-12T19:31:36;39.60;;;23.20;;
9667;SDS011;4872;48.316;10.650;2023-02-12T19:34:06;37.20;;;24.80;;
9667;SDS011;4872;48.316;10.650;2023-02-12T19:36:38;37.67;;;21.87;;
9667;SDS011;4872;48.316;10.650;2023-02-12T19:39:05;38.30;;;23.13;;
9667;SDS011;4872;48.316;10.650;2023-02-12T19:41:32;40.13;;;23.73;;
9667;SDS011;4872;48.316;10.650;2023-02-12T19:44:05;37.43;;;22.90;;
9667;SDS011;4872;48.316;10.650;2023-02-12T19:46:34;47.50;;;28.37;;
9667;SDS011;4872;48.316;10.650;2023-02-12T19:49:02;39.63;;;22.83;;
9667;SDS011;4872;48.316;10.650;2023-02-12T19:51:31;39.17;;;23.10;;
9667;SDS011;4872;48.316;10.650;2023-02-12T19:53:58;38.13;;;23.67;;
9667;SDS011;4872;48.316;10.650;2023-02-12T19:56:26;35.63;;;22.40;;
9667;SDS011;4872;48.316;10.650;2023-02-12T19:58:54;42.83;;;24.90;;
9667;SDS011;4872;48.316;10.650;2023-02-12T20:01:21;41.00;;;23.67;;
9667;SDS011;4872;48.316;10.650;2023-02-12T20:03:49;41.23;;;25.00;;
9667;SDS011;4872;48.316;10.650;2023-02-12T20:06:17;38.13;;;24.63;;
9667;SDS011;4872;48.316;10.650;2023-02-12T20:08:48;38.23;;;24.70;;
9667;SDS011;4872;48.316;10.650;2023-02-12T20:11:16;42.00;;;24.20;;
9667;SDS011;4872;48.316;10.650;2023-02-12T20:13:44;37.67;;;24.70;;
9667;SDS011;4872;48.316;10.650;2023-02-12T20:16:12;41.93;;;24.53;;
9667;SDS011;4872;48.316;10.650;2023-02-12T20:18:40;39.37;;;25.43;;
9667;SDS011;4872;48.316;10.650;2023-02-12T20:21:08;42.87;;;24.77;;
9667;SDS011;4872;48.316;10.650;2023-02-12T20:23:36;41.30;;;24.03;;
9667;SDS011;4872;48.316;10.650;2023-02-12T20:26:05;42.07;;;25.50;;
9667;SDS011;4872;48.316;10.650;2023-02-12T20:28:34;40.53;;;24.90;;
9667;SDS011;4872;48.316;10.650;2023-02-12T20:31:06;40.63;;;26.20;;
9667;SDS011;4872;48.316;10.650;2023-02-12T20:33:34;41.23;;;26.53;;
9667;SDS011;4872;48.316;10.650;2023-02-12T20:36:01;42.00;;;24.83;;